»·PEaware :: N787FL KSAN-KONT

N787FL :: KSAN-KONT

FLIGHT INFORMATION

Flight Status: Arrived
Operator: Privately registered:
United States
More flights under this callsign
Pilot: Luis Bernal (14232)
Aircraft: CESSNA 172 SKYHAWK
(C172)
More flights by this aircraft type
Origin: KSAN San Diego Intl-Lindbergh
United States
Destination: KONT Ontario Intl
United States
More flights between these airports :: More routes between these airports
Route: +OCN V23 DANAH V363 POXKU V8 PDZ
File this flight plan on PilotEdge
Remarks: TEC route SANN19
Altitude:
(Current/Filed)
6,000ft
Speed:
(Current/Filed)
110kts
Departed: 12-Aug-17 05:13 PM
Arrived: 12-Aug-17 06:18 PM
Distance/Time
Traveled:
82nm/1:05
Distance/Time
To Go:
Arrived

Flight Plot

Page will automatically refresh every two minutes.


Map Options




Map Legend


Flown Route
Filed Route
Departure Airport
Arrival Airport
Navaid (VOR, NDB)
Fix

Horizontal Profiles

Position Reports

Time Latitude Longitude Heading Altitude Ground
Speed
12-Aug-17 16:57 32.732459 -117.176888 194 21ft 0kts
12-Aug-17 16:58 32.732459 -117.176888 194 21ft 0kts
12-Aug-17 16:59 32.732459 -117.176888 194 21ft 0kts
12-Aug-17 17:00 32.732459 -117.176888 194 21ft 0kts
12-Aug-17 17:02 32.732459 -117.176888 194 21ft 0kts
12-Aug-17 17:03 32.732459 -117.176888 194 21ft 0kts
12-Aug-17 17:04 32.732459 -117.176888 194 21ft 0kts
12-Aug-17 17:05 32.732459 -117.176888 194 21ft 0kts
12-Aug-17 17:06 32.732459 -117.176888 194 21ft 0kts
12-Aug-17 17:07 32.732459 -117.176888 194 21ft 0kts
12-Aug-17 17:08 32.732459 -117.176888 194 21ft 0kts
12-Aug-17 17:09 32.732459 -117.176888 194 21ft 0kts
12-Aug-17 17:10 32.732459 -117.176888 194 21ft 0kts
12-Aug-17 17:11 32.732436 -117.176895 194 21ft 0kts
12-Aug-17 17:12 32.732104 -117.176897 183 21ft 0kts
12-Aug-17 17:13 32.732082 -117.176899 184 21ft 1kts
12-Aug-17 17:14 32.731215 -117.176104 107 21ft 9kts
12-Aug-17 17:15 32.730737 -117.175377 147 21ft 5kts
12-Aug-17 17:16 32.730532 -117.177412 293 21ft 10kts
12-Aug-17 17:17 32.736394 -117.191072 311 295ft 71kts
12-Aug-17 17:18 32.756250 -117.203381 327 807ft 87kts
12-Aug-17 17:19 32.778049 -117.216007 327 1374ft 86kts
12-Aug-17 17:20 32.789616 -117.222930 327 1689ft 84kts
12-Aug-17 17:21 32.799352 -117.230570 319 1982ft 81kts
12-Aug-17 17:22 32.817879 -117.245576 319 2535ft 79kts
12-Aug-17 17:23 32.837892 -117.258758 336 3007ft 89kts
12-Aug-17 17:24 32.862816 -117.268313 340 3381ft 98kts
12-Aug-17 17:25 32.889123 -117.278602 339 3720ft 101kts
12-Aug-17 17:26 32.915993 -117.289171 340 4038ft 102kts
12-Aug-17 17:27 32.943144 -117.299865 338 4332ft 102kts
12-Aug-17 17:28 32.970216 -117.310581 336 4610ft 102kts
12-Aug-17 17:29 32.996985 -117.321095 337 4943ft 101kts
12-Aug-17 17:30 33.023501 -117.331578 335 5238ft 100kts
12-Aug-17 17:30 33.045557 -117.340299 337 5490ft 100kts
12-Aug-17 17:32 33.076214 -117.352450 338 5833ft 99kts
12-Aug-17 17:33 33.102183 -117.362706 338 5973ft 109kts
12-Aug-17 17:34 33.130499 -117.373768 337 5972ft 115kts
12-Aug-17 17:35 33.160478 -117.385551 337 5970ft 113kts
12-Aug-17 17:36 33.190206 -117.397346 338 5960ft 112kts
12-Aug-17 17:37 33.219656 -117.409099 338 5969ft 111kts
12-Aug-17 17:37 33.242826 -117.421465 316 5964ft 109kts
12-Aug-17 17:38 33.265109 -117.446437 311 5972ft 111kts
12-Aug-17 17:39 33.287303 -117.471877 314 5964ft 109kts
12-Aug-17 17:40 33.309386 -117.497522 313 5967ft 111kts
12-Aug-17 17:41 33.331480 -117.523203 313 5958ft 109kts
12-Aug-17 17:42 33.353578 -117.549017 315 5954ft 104kts
12-Aug-17 17:43 33.374712 -117.573759 314 6007ft 109kts
12-Aug-17 17:44 33.397015 -117.599831 314 6002ft 113kts
12-Aug-17 17:45 33.419461 -117.626015 312 6002ft 113kts
12-Aug-17 17:46 33.441776 -117.652119 312 6003ft 113kts
12-Aug-17 17:47 33.464106 -117.678264 312 6003ft 113kts
12-Aug-17 17:48 33.489826 -117.698622 347 6003ft 117kts
12-Aug-17 17:49 33.520866 -117.704442 347 6003ft 118kts
12-Aug-17 17:50 33.551690 -117.709805 348 6003ft 118kts
12-Aug-17 17:51 33.583975 -117.715282 348 6003ft 118kts
12-Aug-17 17:52 33.616701 -117.720809 348 5959ft 120kts
12-Aug-17 17:53 33.649490 -117.726296 348 5947ft 118kts
12-Aug-17 17:54 33.681096 -117.733568 336 5949ft 115kts
12-Aug-17 17:55 33.710676 -117.747204 335 5949ft 115kts
12-Aug-17 17:56 33.740341 -117.761082 334 5949ft 115kts
12-Aug-17 17:57 33.769914 -117.774982 334 5949ft 115kts
12-Aug-17 17:58 33.801375 -117.780614 354 5950ft 117kts
12-Aug-17 17:59 33.833570 -117.781505 355 5976ft 116kts
12-Aug-17 18:00 33.857537 -117.762775 69 5978ft 122kts
12-Aug-17 18:01 33.867292 -117.727143 71 5977ft 123kts
12-Aug-17 18:02 33.877446 -117.688123 72 5975ft 121kts
12-Aug-17 18:03 33.887239 -117.650020 72 5975ft 119kts
12-Aug-17 18:04 33.896819 -117.612605 72 5994ft 118kts
12-Aug-17 18:05 33.906445 -117.574904 72 5896ft 124kts
12-Aug-17 18:06 33.917553 -117.536283 49 5557ft 121kts
12-Aug-17 18:07 33.937444 -117.503607 51 5218ft 123kts
12-Aug-17 18:08 33.957843 -117.470205 51 4844ft 124kts
12-Aug-17 18:09 33.977874 -117.437326 51 4562ft 120kts
12-Aug-17 18:10 33.997573 -117.404924 51 4363ft 119kts
12-Aug-17 18:11 34.017332 -117.372296 52 4160ft 123kts
12-Aug-17 18:12 34.043715 -117.355376 334 4071ft 110kts
12-Aug-17 18:13 34.055934 -117.385093 271 4066ft 101kts
12-Aug-17 18:14 34.056086 -117.420767 264 3748ft 107kts
12-Aug-17 18:15 34.056262 -117.453684 264 3764ft 95kts
12-Aug-17 18:16 34.054601 -117.486420 274 3100ft 115kts
12-Aug-17 18:17 34.054801 -117.518750 267 1977ft 72kts
12-Aug-17 18:18 34.055383 -117.538233 269 1621ft 54kts
12-Aug-17 18:19 34.055216 -117.556837 263 1450ft 57kts
12-Aug-17 18:20 34.054931 -117.577445 266 1083ft 59kts
12-Aug-17 18:21 34.054638 -117.589955 175 947ft 8kts
12-Aug-17 18:22 34.054022 -117.590249 273 947ft 3kts
12-Aug-17 18:23 34.053910 -117.592816 268 947ft 14kts
12-Aug-17 18:24 34.053904 -117.598558 272 947ft 19kts
12-Aug-17 18:25 34.053857 -117.604699 270 947ft 21kts
12-Aug-17 18:26 34.052919 -117.609507 182 947ft 9kts

Navigation Log

Ident Type
1. KSAN Airport
2. OCN Navaid
3. KELPS Fix
4. DANAH Fix
5. ELB Navaid
6. JOGIT Fix
7. POXKU Fix
8. EBITE Fix
9. PDZ Navaid
10. KONT Airport